Northwest Alabama Regional Airport
KMSL : now visible

Airfield :











YOU CAN JOIN US ON...

 
LOGIN :

Register | Disclaimer

   EN    FR    IT 

 









Legend :    VFR   Marginal VFR   IFR   Intensive IFR   Very Intensive IFR
Visi :
Ceiling :
>= 8 km
>= 3000ft
5 to 8 km
1000 to 3000 ft
1500m to 5 km
500 to 1000 ft
800 to 1500m
200 to 500 ft
< 800m
< 200 ft
Symbols :   Thunderstorms  Fog  Heavy snow  Heavy precipitations  Wind > 20 kt






- Airport Elevation : 551 ft
- IATA code : MSL


KMSL - Northwest Alabama Regional

CURRENT METAR :
  • 301653Z AUTO 29009KT 10SM CLR 33/24 A3003 RMK AO2 SLP162 T03330244 $

EXPIRED METARs :
  • 301553Z AUTO 31011KT 10SM CLR 33/24 A3004 RMK AO2 SLP165 T03280239 $
  • 301453Z AUTO 29007KT 10SM CLR 31/24 A3005 RMK AO2 SLP168 T03110239 58001 $
  • 301353Z AUTO 22006KT 7SM CLR 29/25 A3006 RMK AO2 SLP170 T02940250 $

TAF KMSL
Valid from the 30 at 12:00 until the 31 at 12:00 UTC


301137Z 3012/3112 VRB03KT 4SM BR FEW040 BKN250
TEMPO 3012/3013 2SM BR FEW050 BKN250
FM301300 VRB04KT P6SM SCT050 BKN060
FM302000 31007KT P6SM VCSH FEW050 SCT250
PROB30 3021/3023 5SM -TSRA BR BKN050CB
FM310000 00000KT P6SM FEW250
FM310800 00000KT 3SM BR FEW250
KZME FIR / North America



MET'MAP, your aeronautical weather chart ! - Copyright ORBIFLY December 2007 - Disclaimer

ORBIFLY MET'MAP TEAM :

Programming & Development : Alexandra Zaïnal
Concept & original design : Baudouin d'Aumeries
Assistance for programming : Marc-Olivier Méhu
Technical & hardware support : Manuel Goepfert

Contact : metmap@orbifly.com




SOURCES & CREDITS :

   NOAA       Earth
Advisory